createdAt,value
2017-07-04T00:00:09.656Z,1014.57
2017-07-04T00:00:50.164Z,1014.57
2017-07-04T00:01:30.708Z,1014.58
2017-07-04T00:02:11.251Z,1014.58
2017-07-04T00:02:51.850Z,1014.61
2017-07-04T00:03:32.372Z,1014.58
2017-07-04T00:04:12.925Z,1014.6
2017-07-04T00:04:53.462Z,1014.61
2017-07-04T00:05:34.004Z,1014.6
2017-07-04T00:06:14.535Z,1014.58
2017-07-04T00:06:55.080Z,1014.61
2017-07-04T00:07:35.628Z,1014.64
2017-07-04T00:08:16.169Z,1014.62
2017-07-04T00:08:56.717Z,1014.61
2017-07-04T00:09:37.260Z,1014.58
2017-07-04T00:10:17.806Z,1014.59
2017-07-04T00:10:58.352Z,1014.6
2017-07-04T00:11:38.899Z,1014.6
2017-07-04T00:12:19.434Z,1014.62
2017-07-04T00:12:59.974Z,1014.61
2017-07-04T00:13:40.507Z,1014.61
2017-07-04T00:14:21.041Z,1014.62
2017-07-04T00:15:01.584Z,1014.63
2017-07-04T00:15:42.125Z,1014.59
2017-07-04T00:16:22.647Z,1014.59
2017-07-04T00:17:03.190Z,1014.59
2017-07-04T00:17:43.719Z,1014.59
2017-07-04T00:18:24.258Z,1014.58
2017-07-04T00:19:04.816Z,1014.58
2017-07-04T00:21:24.167Z,1014.54
2017-07-04T00:22:04.706Z,1014.55
2017-07-04T00:22:45.248Z,1014.56
2017-07-04T00:23:25.810Z,1014.58
2017-07-04T00:24:06.305Z,1014.56
2017-07-04T00:24:46.850Z,1014.57
2017-07-04T00:25:27.381Z,1014.55
2017-07-04T00:26:07.923Z,1014.55
2017-07-04T00:26:48.461Z,1014.54
2017-07-04T00:27:29.000Z,1014.55
2017-07-04T00:28:09.541Z,1014.56
2017-07-04T00:28:50.084Z,1014.58
2017-07-04T00:29:30.626Z,1014.58
2017-07-04T00:30:11.138Z,1014.59
2017-07-04T00:30:51.677Z,1014.56
2017-07-04T00:31:32.217Z,1014.6
2017-07-04T00:32:12.755Z,1014.54
2017-07-04T00:32:53.317Z,1014.58
2017-07-04T00:33:33.857Z,1014.58
2017-07-04T00:35:33.002Z,1014.62
2017-07-04T00:36:13.534Z,1014.62
2017-07-04T00:36:54.077Z,1014.59
2017-07-04T00:37:34.619Z,1014.56
2017-07-04T00:38:15.151Z,1014.6
2017-07-04T00:38:55.698Z,1014.62
2017-07-04T00:39:36.229Z,1014.58
2017-07-04T00:40:16.769Z,1014.6
2017-07-04T00:40:57.302Z,1014.6
2017-07-04T00:41:37.840Z,1014.59
2017-07-04T00:42:18.379Z,1014.59
2017-07-04T00:42:58.918Z,1014.57
2017-07-04T00:43:39.454Z,1014.56
2017-07-04T00:44:19.997Z,1014.55
2017-07-04T00:45:00.519Z,1014.53
2017-07-04T00:45:41.043Z,1014.53
2017-07-04T00:46:21.596Z,1014.56
2017-07-04T00:47:02.130Z,1014.58
2017-07-04T00:47:42.661Z,1014.55
2017-07-04T00:48:23.209Z,1014.53
2017-07-04T00:49:03.754Z,1014.58
2017-07-04T00:49:44.295Z,1014.56
2017-07-04T00:50:24.850Z,1014.55
2017-07-04T00:51:05.394Z,1014.55
2017-07-04T00:51:45.934Z,1014.55
2017-07-04T00:52:26.484Z,1014.56
2017-07-04T00:53:07.021Z,1014.53
2017-07-04T00:53:47.603Z,1014.51
2017-07-04T00:54:28.092Z,1014.51
2017-07-04T00:55:08.634Z,1014.52
2017-07-04T00:55:49.170Z,1014.49
2017-07-04T00:56:29.708Z,1014.49
2017-07-04T00:57:10.248Z,1014.49
2017-07-04T00:57:50.787Z,1014.52
2017-07-04T00:58:31.315Z,1014.52
2017-07-04T00:59:11.893Z,1014.49
2017-07-04T00:59:52.439Z,1014.51
2017-07-04T01:00:32.977Z,1014.5
2017-07-04T01:01:13.516Z,1014.5
2017-07-04T01:01:54.056Z,1014.52
2017-07-04T01:02:34.601Z,1014.56
2017-07-04T01:03:15.142Z,1014.52
2017-07-04T01:03:55.681Z,1014.53
2017-07-04T01:04:36.219Z,1014.51
2017-07-04T01:05:16.760Z,1014.52
2017-07-04T01:05:57.302Z,1014.53
2017-07-04T01:06:37.826Z,1014.51
2017-07-04T01:07:18.369Z,1014.49
2017-07-04T01:07:58.915Z,1014.5
2017-07-04T01:08:39.444Z,1014.5
2017-07-04T01:09:19.980Z,1014.49
2017-07-04T01:10:00.526Z,1014.5
2017-07-04T01:10:41.055Z,1014.53
2017-07-04T01:11:21.595Z,1014.53
2017-07-04T01:12:02.119Z,1014.54
2017-07-04T01:12:42.667Z,1014.53
2017-07-04T01:13:23.209Z,1014.53
2017-07-04T01:14:03.825Z,1014.55
2017-07-04T01:14:44.361Z,1014.5
2017-07-04T01:15:24.894Z,1014.52
2017-07-04T01:16:05.423Z,1014.53
2017-07-04T01:16:45.973Z,1014.53
2017-07-04T01:17:26.512Z,1014.53
2017-07-04T01:18:07.053Z,1014.52
2017-07-04T01:18:47.591Z,1014.52
2017-07-04T01:19:28.135Z,1014.51
2017-07-04T01:20:08.676Z,1014.51
2017-07-04T01:20:49.229Z,1014.52
2017-07-04T01:21:29.755Z,1014.51
2017-07-04T01:22:10.284Z,1014.5
2017-07-04T01:22:50.826Z,1014.53
2017-07-04T01:23:31.360Z,1014.5
2017-07-04T01:24:11.901Z,1014.52
2017-07-04T01:24:52.453Z,1014.52
2017-07-04T01:25:33.035Z,1014.51
2017-07-04T01:26:13.567Z,1014.51
2017-07-04T01:26:54.111Z,1014.5
2017-07-04T01:27:34.655Z,1014.51
2017-07-04T01:28:15.205Z,1014.5
2017-07-04T01:28:55.746Z,1014.51
2017-07-04T01:29:36.297Z,1014.45
2017-07-04T01:30:16.842Z,1014.45
2017-07-04T01:30:57.359Z,1014.46
2017-07-04T01:31:37.893Z,1014.43
2017-07-04T01:32:18.452Z,1014.48
2017-07-04T01:32:58.975Z,1014.46
2017-07-04T01:33:39.519Z,1014.47
2017-07-04T01:34:20.059Z,1014.47
2017-07-04T01:35:00.598Z,1014.49
2017-07-04T01:35:41.140Z,1014.47
2017-07-04T01:36:21.680Z,1014.48
2017-07-04T01:37:02.212Z,1014.47
2017-07-04T01:37:42.743Z,1014.47
2017-07-04T01:38:23.284Z,1014.49
2017-07-04T01:40:37.520Z,1014.47
2017-07-04T01:41:18.062Z,1014.47
2017-07-04T01:43:47.497Z,1014.45
2017-07-04T01:44:28.040Z,1014.49
2017-07-04T01:45:08.585Z,1014.46
2017-07-04T01:45:49.120Z,1014.49
2017-07-04T01:46:29.659Z,1014.44
2017-07-04T01:47:10.190Z,1014.47
2017-07-04T01:47:50.728Z,1014.45
2017-07-04T01:48:31.269Z,1014.46
2017-07-04T01:49:11.809Z,1014.5
2017-07-04T01:49:52.344Z,1014.46
2017-07-04T01:50:32.884Z,1014.51
2017-07-04T01:51:13.421Z,1014.5
2017-07-04T01:51:53.953Z,1014.53
2017-07-04T01:52:34.490Z,1014.51
2017-07-04T01:53:15.016Z,1014.54
2017-07-04T01:53:55.555Z,1014.54
2017-07-04T01:54:36.105Z,1014.5
2017-07-04T01:55:16.656Z,1014.51
2017-07-04T01:55:57.251Z,1014.49
2017-07-04T01:56:37.780Z,1014.48
2017-07-04T01:57:18.319Z,1014.5
2017-07-04T01:57:58.853Z,1014.48
2017-07-04T01:58:39.393Z,1014.49
2017-07-04T01:59:19.921Z,1014.5
2017-07-04T02:00:00.453Z,1014.48
2017-07-04T02:00:40.998Z,1014.49
2017-07-04T02:01:21.533Z,1014.5
2017-07-04T02:02:02.078Z,1014.48
2017-07-04T02:02:42.614Z,1014.5
2017-07-04T02:03:23.155Z,1014.53
2017-07-04T02:04:03.696Z,1014.51
2017-07-04T02:04:44.233Z,1014.5
2017-07-04T02:05:24.775Z,1014.52
2017-07-04T02:06:05.320Z,1014.47
2017-07-04T02:06:45.865Z,1014.46
2017-07-04T02:07:26.429Z,1014.52
2017-07-04T02:08:06.963Z,1014.5
2017-07-04T02:08:47.501Z,1014.46
2017-07-04T02:09:28.037Z,1014.51
2017-07-04T02:10:08.584Z,1014.51
2017-07-04T02:10:49.113Z,1014.52
2017-07-04T02:11:29.661Z,1014.51
2017-07-04T02:12:10.204Z,1014.5
2017-07-04T02:12:50.741Z,1014.51
2017-07-04T02:13:31.284Z,1014.47
2017-07-04T02:14:11.826Z,1014.53
2017-07-04T02:14:52.353Z,1014.56
2017-07-04T02:15:32.883Z,1014.54
2017-07-04T02:16:13.419Z,1014.56
2017-07-04T02:16:53.960Z,1014.54
2017-07-04T02:17:34.514Z,1014.51
2017-07-04T02:18:15.062Z,1014.53
2017-07-04T02:18:55.604Z,1014.54
2017-07-04T02:19:36.162Z,1014.52
2017-07-04T02:20:16.710Z,1014.52
2017-07-04T02:20:57.293Z,1014.54
2017-07-04T02:21:37.790Z,1014.52
2017-07-04T02:22:18.330Z,1014.51
2017-07-04T02:22:58.857Z,1014.56
2017-07-04T02:23:39.397Z,1014.51
2017-07-04T02:24:19.955Z,1014.49
2017-07-04T02:25:00.470Z,1014.51
2017-07-04T02:25:41.026Z,1014.56
2017-07-04T02:26:21.570Z,1014.55
2017-07-04T02:27:02.107Z,1014.53
2017-07-04T02:27:42.649Z,1014.52
2017-07-04T02:28:23.190Z,1014.53
2017-07-04T02:29:03.704Z,1014.54
2017-07-04T02:29:44.244Z,1014.56
2017-07-04T02:30:24.782Z,1014.56
2017-07-04T02:31:05.367Z,1014.56
2017-07-04T02:31:45.898Z,1014.58
2017-07-04T02:32:26.443Z,1014.56
2017-07-04T02:33:06.978Z,1014.56
2017-07-04T02:33:47.513Z,1014.62
2017-07-04T02:34:28.053Z,1014.58
2017-07-04T02:35:08.571Z,1014.63
2017-07-04T02:35:49.106Z,1014.61
2017-07-04T02:36:29.646Z,1014.64
2017-07-04T02:37:10.181Z,1014.62
2017-07-04T02:37:50.721Z,1014.64
2017-07-04T02:38:31.266Z,1014.66
2017-07-04T02:39:11.812Z,1014.66
2017-07-04T02:39:52.359Z,1014.7
2017-07-04T02:40:32.875Z,1014.66
2017-07-04T02:41:13.410Z,1014.66
2017-07-04T02:41:53.950Z,1014.68
2017-07-04T02:42:34.491Z,1014.68
2017-07-04T02:43:15.036Z,1014.66
2017-07-04T02:43:55.570Z,1014.65
2017-07-04T02:44:36.111Z,1014.67
2017-07-04T02:45:16.626Z,1014.67
2017-07-04T02:45:57.166Z,1014.64
2017-07-04T02:46:37.705Z,1014.7
2017-07-04T02:47:18.242Z,1014.62
2017-07-04T02:47:58.780Z,1014.66
2017-07-04T02:48:39.331Z,1014.66
2017-07-04T02:49:19.866Z,1014.69
2017-07-04T02:50:00.406Z,1014.69
2017-07-04T02:50:40.943Z,1014.67
2017-07-04T02:51:21.471Z,1014.7
2017-07-04T02:52:02.052Z,1014.71
2017-07-04T02:52:42.583Z,1014.7
2017-07-04T02:53:23.122Z,1014.75
2017-07-04T02:54:03.664Z,1014.7
2017-07-04T02:54:44.205Z,1014.72
2017-07-04T02:55:24.748Z,1014.75
2017-07-04T02:56:05.293Z,1014.71
2017-07-04T02:56:45.839Z,1014.7
2017-07-04T02:57:26.384Z,1014.67
2017-07-04T02:58:06.927Z,1014.7
2017-07-04T02:58:47.490Z,1014.72
2017-07-04T02:59:27.992Z,1014.71
2017-07-04T03:00:08.527Z,1014.74
2017-07-04T03:00:49.069Z,1014.73
2017-07-04T03:01:29.612Z,1014.7
2017-07-04T03:02:10.152Z,1014.73
2017-07-04T03:02:50.683Z,1014.72
2017-07-04T03:03:31.223Z,1014.75
2017-07-04T03:04:11.745Z,1014.75
2017-07-04T03:04:52.287Z,1014.77
2017-07-04T03:05:32.822Z,1014.8
2017-07-04T03:06:13.358Z,1014.79
2017-07-04T03:06:53.906Z,1014.78
2017-07-04T03:07:34.437Z,1014.76
2017-07-04T03:08:15.026Z,1014.79
2017-07-04T03:08:55.562Z,1014.78
2017-07-04T03:09:36.098Z,1014.76
2017-07-04T03:10:16.635Z,1014.78
2017-07-04T03:10:57.178Z,1014.76
2017-07-04T03:11:37.702Z,1014.75
2017-07-04T03:12:18.239Z,1014.75
2017-07-04T03:12:58.783Z,1014.76
2017-07-04T03:13:39.348Z,1014.77
2017-07-04T03:14:19.874Z,1014.74
2017-07-04T03:15:00.416Z,1014.78
2017-07-04T03:15:40.952Z,1014.76
2017-07-04T03:16:21.495Z,1014.78
2017-07-04T03:17:02.034Z,1014.77
2017-07-04T03:17:42.577Z,1014.76
2017-07-04T03:18:23.104Z,1014.77
2017-07-04T03:19:03.636Z,1014.78
2017-07-04T03:19:44.175Z,1014.77
2017-07-04T03:20:24.721Z,1014.78
2017-07-04T03:21:05.258Z,1014.79
2017-07-04T03:21:45.796Z,1014.78
2017-07-04T03:22:26.332Z,1014.8
2017-07-04T03:23:06.883Z,1014.78
2017-07-04T03:23:47.424Z,1014.79
2017-07-04T03:24:27.944Z,1014.84
2017-07-04T03:25:08.498Z,1014.82
2017-07-04T03:25:49.034Z,1014.78
2017-07-04T03:26:29.579Z,1014.77
2017-07-04T03:27:10.139Z,1014.81
2017-07-04T03:27:50.676Z,1014.8
2017-07-04T03:28:31.252Z,1014.78
2017-07-04T03:29:11.767Z,1014.82
2017-07-04T03:29:52.304Z,1014.81
2017-07-04T03:30:32.839Z,1014.8
2017-07-04T03:31:13.474Z,1014.84
2017-07-04T03:31:54.058Z,1014.85
2017-07-04T03:32:34.597Z,1014.9
2017-07-04T03:33:15.131Z,1014.84
2017-07-04T03:33:55.675Z,1014.82
2017-07-04T03:34:36.223Z,1014.89
2017-07-04T03:35:16.794Z,1014.83
2017-07-04T03:35:57.325Z,1014.81
2017-07-04T03:36:37.882Z,1014.84
2017-07-04T03:37:18.409Z,1014.84
2017-07-04T03:37:58.958Z,1014.82
2017-07-04T03:38:39.502Z,1014.85
2017-07-04T03:39:20.044Z,1014.84
2017-07-04T03:40:00.584Z,1014.86
2017-07-04T03:40:41.118Z,1014.85
2017-07-04T03:41:21.691Z,1014.89
2017-07-04T03:42:02.230Z,1014.86
2017-07-04T03:42:42.774Z,1014.92
2017-07-04T03:43:23.315Z,1014.88
2017-07-04T03:44:03.852Z,1014.9
2017-07-04T03:44:44.389Z,1014.9
2017-07-04T03:45:24.924Z,1014.91
2017-07-04T03:46:05.456Z,1014.89
2017-07-04T03:46:45.997Z,1014.91
2017-07-04T03:47:26.536Z,1014.89
2017-07-04T03:48:07.078Z,1014.89
2017-07-04T03:48:47.609Z,1014.91
2017-07-04T03:49:28.140Z,1014.93
2017-07-04T03:50:08.671Z,1014.93
2017-07-04T03:50:49.215Z,1014.97
2017-07-04T03:51:29.756Z,1014.95
2017-07-04T03:52:10.290Z,1014.94
2017-07-04T03:52:50.829Z,1014.96
2017-07-04T03:53:31.352Z,1014.98
2017-07-04T03:54:11.890Z,1014.99
2017-07-04T03:54:52.425Z,1015
2017-07-04T03:55:32.997Z,1015
2017-07-04T03:56:13.537Z,1014.97
2017-07-04T03:56:54.069Z,1014.97
2017-07-04T03:57:34.607Z,1014.96
2017-07-04T03:58:15.139Z,1014.98
2017-07-04T03:58:55.680Z,1015.03
2017-07-04T03:59:36.200Z,1015.04
2017-07-04T04:00:16.746Z,1015.02
2017-07-04T04:00:57.288Z,1015.01
2017-07-04T04:01:37.821Z,1015.03
2017-07-04T04:02:18.362Z,1015.01
2017-07-04T04:02:58.904Z,1015.01
2017-07-04T04:03:39.483Z,1015
2017-07-04T04:04:20.018Z,1015.04
2017-07-04T04:05:00.554Z,1015.08
2017-07-04T04:05:41.095Z,1015.05
2017-07-04T04:06:21.634Z,1015.05
2017-07-04T04:07:02.169Z,1015.07
2017-07-04T04:07:42.707Z,1015.04
2017-07-04T04:08:23.236Z,1015.05
2017-07-04T04:09:03.776Z,1015.04
2017-07-04T04:09:44.313Z,1015.02
2017-07-04T04:10:24.862Z,1014.99
2017-07-04T04:11:05.402Z,1014.95
2017-07-04T04:11:45.936Z,1015
2017-07-04T04:12:26.476Z,1014.99
2017-07-04T04:13:07.010Z,1014.97
2017-07-04T04:13:47.542Z,1015.01
2017-07-04T04:14:28.084Z,1014.96
2017-07-04T04:15:08.625Z,1015.01
2017-07-04T04:15:49.156Z,1014.99
2017-07-04T04:16:29.672Z,1014.97
2017-07-04T04:17:10.195Z,1014.96
2017-07-04T04:17:50.739Z,1014.97
2017-07-04T04:18:31.275Z,1014.94
2017-07-04T04:19:11.818Z,1014.95
2017-07-04T04:19:52.355Z,1014.95
2017-07-04T04:20:32.876Z,1014.98
2017-07-04T04:21:13.404Z,1015
2017-07-04T04:21:53.940Z,1014.97
2017-07-04T04:22:34.488Z,1014.96
2017-07-04T04:23:15.011Z,1015.01
2017-07-04T04:23:55.546Z,1014.98
2017-07-04T04:24:36.085Z,1014.99
2017-07-04T04:25:16.700Z,1014.99
2017-07-04T04:25:57.242Z,1015.02
2017-07-04T04:26:37.765Z,1015.02
2017-07-04T04:27:18.441Z,1015.02
2017-07-04T04:27:58.950Z,1015.02
2017-07-04T04:28:39.620Z,1015.04
2017-07-04T04:29:20.140Z,1015.06
2017-07-04T04:30:00.675Z,1015.09
2017-07-04T04:30:41.220Z,1015.09
2017-07-04T04:31:21.764Z,1015.11
2017-07-04T04:32:02.302Z,1015.13
2017-07-04T04:32:42.844Z,1015.12
2017-07-04T04:33:23.387Z,1015.12
2017-07-04T04:34:03.924Z,1015.08
2017-07-04T04:34:44.467Z,1015.12
2017-07-04T04:35:25.022Z,1015.11
2017-07-04T04:36:05.523Z,1015.13
2017-07-04T04:36:46.055Z,1015.16
2017-07-04T04:37:26.631Z,1015.14
2017-07-04T04:38:07.126Z,1015.11
2017-07-04T04:38:47.682Z,1015.15
2017-07-04T04:39:28.171Z,1015.14
2017-07-04T04:40:08.692Z,1015.19
2017-07-04T04:40:49.229Z,1015.17
2017-07-04T04:41:29.778Z,1015.19
2017-07-04T04:42:10.315Z,1015.22
2017-07-04T04:42:50.852Z,1015.2
2017-07-04T04:43:31.392Z,1015.23
2017-07-04T04:44:11.930Z,1015.23
2017-07-04T04:44:52.480Z,1015.23
2017-07-04T04:45:33.016Z,1015.25
2017-07-04T04:46:13.592Z,1015.22
2017-07-04T04:46:54.108Z,1015.23
2017-07-04T04:47:34.628Z,1015.27
2017-07-04T04:48:15.165Z,1015.22
2017-07-04T04:48:55.699Z,1015.25
2017-07-04T04:49:36.240Z,1015.24
2017-07-04T04:50:16.780Z,1015.26
2017-07-04T04:50:57.311Z,1015.24
2017-07-04T04:51:37.837Z,1015.29
2017-07-04T04:52:18.381Z,1015.31
2017-07-04T04:52:58.905Z,1015.31
2017-07-04T04:53:39.443Z,1015.3
2017-07-04T04:54:19.988Z,1015.28
2017-07-04T04:55:00.524Z,1015.33
2017-07-04T04:55:41.065Z,1015.32
2017-07-04T04:56:21.604Z,1015.36
2017-07-04T04:57:02.146Z,1015.34
2017-07-04T04:57:42.685Z,1015.35
2017-07-04T04:58:23.209Z,1015.38
2017-07-04T04:59:03.756Z,1015.38
2017-07-04T04:59:44.297Z,1015.39
2017-07-04T05:00:24.838Z,1015.43
2017-07-04T05:01:05.371Z,1015.41
2017-07-04T05:01:45.902Z,1015.37
2017-07-04T05:02:26.446Z,1015.35
2017-07-04T05:03:06.992Z,1015.36
2017-07-04T05:03:47.539Z,1015.39
2017-07-04T05:04:28.068Z,1015.36
2017-07-04T05:05:08.613Z,1015.41
2017-07-04T05:05:49.156Z,1015.37
2017-07-04T05:06:29.695Z,1015.4
2017-07-04T05:07:10.244Z,1015.42
2017-07-04T05:07:50.781Z,1015.4
2017-07-04T05:08:31.339Z,1015.42
2017-07-04T05:09:11.910Z,1015.37
2017-07-04T05:09:52.450Z,1015.42
2017-07-04T05:10:33.001Z,1015.39
2017-07-04T05:11:13.538Z,1015.38
2017-07-04T05:11:54.080Z,1015.35
2017-07-04T05:12:34.624Z,1015.36
2017-07-04T05:13:15.174Z,1015.38
2017-07-04T05:13:55.717Z,1015.37
2017-07-04T05:14:36.264Z,1015.39
2017-07-04T05:15:16.808Z,1015.42
2017-07-04T05:15:57.331Z,1015.42
2017-07-04T05:16:37.880Z,1015.43
2017-07-04T05:17:18.422Z,1015.44
2017-07-04T05:17:58.959Z,1015.45
2017-07-04T05:18:39.509Z,1015.4
2017-07-04T05:19:20.061Z,1015.42
2017-07-04T05:20:00.593Z,1015.45
2017-07-04T05:20:41.143Z,1015.42
2017-07-04T05:21:21.688Z,1015.42
2017-07-04T05:22:02.216Z,1015.43
2017-07-04T05:22:42.747Z,1015.43
2017-07-04T05:23:23.284Z,1015.41
2017-07-04T05:24:03.819Z,1015.4
2017-07-04T05:24:44.378Z,1015.43
2017-07-04T05:25:24.902Z,1015.45
2017-07-04T05:26:05.445Z,1015.45
2017-07-04T05:26:45.987Z,1015.46
2017-07-04T05:27:26.528Z,1015.43
2017-07-04T05:28:07.074Z,1015.44
2017-07-04T05:28:47.627Z,1015.43
2017-07-04T05:29:28.153Z,1015.43
2017-07-04T05:30:08.685Z,1015.42
2017-07-04T05:30:49.223Z,1015.42
2017-07-04T05:31:29.771Z,1015.44
2017-07-04T05:32:10.315Z,1015.45
2017-07-04T05:32:50.858Z,1015.45
2017-07-04T05:33:31.426Z,1015.44
2017-07-04T05:34:11.955Z,1015.45
2017-07-04T05:34:52.496Z,1015.48
2017-07-04T05:35:33.047Z,1015.46
2017-07-04T05:36:13.608Z,1015.48
2017-07-04T05:36:54.138Z,1015.49
2017-07-04T05:37:34.682Z,1015.51
2017-07-04T05:38:15.208Z,1015.49
2017-07-04T05:38:55.760Z,1015.47
2017-07-04T05:39:36.291Z,1015.46
2017-07-04T05:40:16.830Z,1015.47
2017-07-04T05:40:57.374Z,1015.45
2017-07-04T05:41:37.919Z,1015.47
2017-07-04T05:42:18.452Z,1015.48
2017-07-04T05:42:59.014Z,1015.49
2017-07-04T05:43:39.664Z,1015.47
2017-07-04T05:44:20.185Z,1015.44
2017-07-04T05:45:00.695Z,1015.45
2017-07-04T05:45:41.196Z,1015.45
2017-07-04T05:46:21.767Z,1015.45
2017-07-04T05:47:02.369Z,1015.47
2017-07-04T05:47:43.161Z,1015.47
2017-07-04T05:48:23.831Z,1015.48
2017-07-04T05:49:04.328Z,1015.46
2017-07-04T05:49:44.871Z,1015.47
2017-07-04T05:50:25.415Z,1015.44
2017-07-04T05:51:05.970Z,1015.46
2017-07-04T05:51:46.517Z,1015.48
2017-07-04T05:52:27.066Z,1015.49
2017-07-04T05:53:07.604Z,1015.5
2017-07-04T05:53:48.198Z,1015.48
2017-07-04T05:54:28.724Z,1015.44
2017-07-04T05:55:09.275Z,1015.45
2017-07-04T05:55:49.819Z,1015.43
2017-07-04T05:56:30.347Z,1015.44
2017-07-04T05:57:10.886Z,1015.45
2017-07-04T05:57:51.465Z,1015.44
2017-07-04T05:58:31.959Z,1015.43
2017-07-04T05:59:12.496Z,1015.44
2017-07-04T05:59:52.997Z,1015.44
2017-07-04T06:00:33.489Z,1015.43
2017-07-04T06:01:14.014Z,1015.44
2017-07-04T06:01:54.599Z,1015.44
2017-07-04T06:02:35.089Z,1015.45
2017-07-04T06:03:15.630Z,1015.43
2017-07-04T06:03:56.146Z,1015.47
2017-07-04T06:04:36.641Z,1015.44
2017-07-04T06:05:17.159Z,1015.46
2017-07-04T06:05:57.723Z,1015.45
2017-07-04T06:06:38.237Z,1015.46
2017-07-04T06:07:18.730Z,1015.45
2017-07-04T06:07:59.301Z,1015.45
2017-07-04T06:08:39.803Z,1015.44
2017-07-04T06:09:20.292Z,1015.47
2017-07-04T06:10:00.827Z,1015.46
2017-07-04T06:10:41.386Z,1015.47
2017-07-04T06:11:21.889Z,1015.48
2017-07-04T06:12:02.431Z,1015.45
2017-07-04T06:12:42.940Z,1015.45
2017-07-04T06:13:23.505Z,1015.48
2017-07-04T06:14:04.004Z,1015.48
2017-07-04T06:14:44.583Z,1015.45
2017-07-04T06:15:25.085Z,1015.46
2017-07-04T06:16:05.636Z,1015.47
2017-07-04T06:16:46.137Z,1015.46
2017-07-04T06:17:26.647Z,1015.45
2017-07-04T06:18:07.188Z,1015.5
2017-07-04T06:18:47.708Z,1015.46
2017-07-04T06:19:28.346Z,1015.47
2017-07-04T06:20:08.932Z,1015.49
2017-07-04T06:20:49.464Z,1015.5
2017-07-04T06:21:30.006Z,1015.54
2017-07-04T06:22:10.599Z,1015.52
2017-07-04T06:22:51.116Z,1015.51
2017-07-04T06:23:31.711Z,1015.55
2017-07-04T06:24:12.297Z,1015.55
2017-07-04T06:24:52.809Z,1015.58
2017-07-04T06:25:33.279Z,1015.57
2017-07-04T06:26:13.819Z,1015.61
2017-07-04T06:26:54.313Z,1015.63
2017-07-04T06:27:34.837Z,1015.58
2017-07-04T06:28:15.393Z,1015.6
2017-07-04T06:28:55.901Z,1015.57
2017-07-04T06:29:36.388Z,1015.57
2017-07-04T06:30:16.906Z,1015.57
2017-07-04T06:30:57.418Z,1015.58
2017-07-04T06:31:37.903Z,1015.57
2017-07-04T06:32:18.413Z,1015.58
2017-07-04T06:32:58.906Z,1015.57
2017-07-04T06:33:39.412Z,1015.58
2017-07-04T06:34:19.935Z,1015.56
2017-07-04T06:35:00.450Z,1015.58
2017-07-04T06:35:40.998Z,1015.59
2017-07-04T06:36:21.500Z,1015.56
2017-07-04T06:37:01.996Z,1015.55
2017-07-04T06:37:42.507Z,1015.57
2017-07-04T06:38:23.006Z,1015.57
2017-07-04T06:39:03.550Z,1015.54
2017-07-04T06:39:44.026Z,1015.51
2017-07-04T06:40:24.538Z,1015.57
2017-07-04T06:41:05.058Z,1015.56
2017-07-04T06:41:45.586Z,1015.55
2017-07-04T06:42:26.136Z,1015.56
2017-07-04T06:43:06.675Z,1015.58
2017-07-04T06:43:47.231Z,1015.53
2017-07-04T06:44:27.754Z,1015.52
2017-07-04T06:45:08.304Z,1015.52
2017-07-04T06:45:48.884Z,1015.55
2017-07-04T06:46:29.409Z,1015.56
2017-07-04T06:47:09.954Z,1015.53
2017-07-04T06:47:50.532Z,1015.5
2017-07-04T06:48:31.058Z,1015.55
2017-07-04T06:49:11.573Z,1015.55
2017-07-04T06:49:52.106Z,1015.59
2017-07-04T06:50:32.650Z,1015.55
2017-07-04T06:51:13.188Z,1015.57
2017-07-04T06:51:53.758Z,1015.59
2017-07-04T06:52:34.291Z,1015.59
2017-07-04T06:53:14.811Z,1015.56
2017-07-04T06:53:55.328Z,1015.6
2017-07-04T06:54:35.863Z,1015.6
2017-07-04T06:55:16.381Z,1015.57
2017-07-04T06:55:56.888Z,1015.57
2017-07-04T06:56:37.466Z,1015.57
2017-07-04T06:57:17.999Z,1015.56
2017-07-04T06:57:58.473Z,1015.57
2017-07-04T06:58:38.984Z,1015.55
2017-07-04T06:59:19.515Z,1015.57
2017-07-04T07:00:00.096Z,1015.57
2017-07-04T07:00:40.565Z,1015.57
2017-07-04T07:01:21.110Z,1015.58
2017-07-04T07:02:01.631Z,1015.58
2017-07-04T07:02:42.180Z,1015.6
2017-07-04T07:03:22.697Z,1015.58
2017-07-04T07:04:03.209Z,1015.62
2017-07-04T07:04:43.708Z,1015.59
2017-07-04T07:05:24.267Z,1015.55
2017-07-04T07:06:04.784Z,1015.56
2017-07-04T07:06:45.315Z,1015.59
2017-07-04T07:07:25.829Z,1015.57
2017-07-04T07:08:06.314Z,1015.51
2017-07-04T07:08:46.834Z,1015.53
2017-07-04T07:09:27.377Z,1015.53
2017-07-04T07:10:07.876Z,1015.53
2017-07-04T07:10:48.391Z,1015.52
2017-07-04T07:11:28.939Z,1015.56
2017-07-04T07:12:09.492Z,1015.52
2017-07-04T07:12:50.022Z,1015.54
2017-07-04T07:13:30.540Z,1015.51
2017-07-04T07:14:11.016Z,1015.54
2017-07-04T07:14:51.576Z,1015.59
2017-07-04T07:15:32.096Z,1015.57
2017-07-04T07:16:12.601Z,1015.57
2017-07-04T07:16:53.150Z,1015.6
2017-07-04T07:17:33.715Z,1015.59
2017-07-04T07:18:14.197Z,1015.6
2017-07-04T07:18:54.714Z,1015.59
2017-07-04T07:19:35.247Z,1015.56
2017-07-04T07:20:15.844Z,1015.52
2017-07-04T07:20:56.369Z,1015.55
2017-07-04T07:21:36.912Z,1015.53
2017-07-04T07:22:17.391Z,1015.51
2017-07-04T07:22:57.909Z,1015.55
2017-07-04T07:23:38.404Z,1015.49
2017-07-04T07:24:18.921Z,1015.52
2017-07-04T07:24:59.442Z,1015.53
2017-07-04T07:25:39.968Z,1015.5
2017-07-04T07:26:20.507Z,1015.52
2017-07-04T07:27:01.032Z,1015.53
2017-07-04T07:27:41.581Z,1015.56
2017-07-04T07:28:22.120Z,1015.53
2017-07-04T07:29:02.645Z,1015.57
2017-07-04T07:29:43.169Z,1015.57
2017-07-04T07:30:23.674Z,1015.58
2017-07-04T07:31:04.195Z,1015.61
2017-07-04T07:31:44.706Z,1015.59
2017-07-04T07:32:25.207Z,1015.62
2017-07-04T07:33:05.757Z,1015.62
2017-07-04T07:33:46.365Z,1015.62
2017-07-04T07:34:26.912Z,1015.63
2017-07-04T07:35:07.505Z,1015.62
2017-07-04T07:35:48.052Z,1015.56
2017-07-04T07:36:28.637Z,1015.63
2017-07-04T07:37:09.157Z,1015.64
2017-07-04T07:37:49.640Z,1015.66
2017-07-04T07:38:30.158Z,1015.66
2017-07-04T07:39:10.691Z,1015.61
2017-07-04T07:39:51.227Z,1015.62
2017-07-04T07:40:31.741Z,1015.62
2017-07-04T07:41:12.282Z,1015.59
2017-07-04T07:41:52.788Z,1015.66
2017-07-04T07:42:33.318Z,1015.65
2017-07-04T07:43:13.835Z,1015.62
2017-07-04T07:43:54.350Z,1015.64
2017-07-04T07:44:34.894Z,1015.62
2017-07-04T07:45:15.419Z,1015.64
2017-07-04T07:45:55.937Z,1015.63
2017-07-04T07:46:36.456Z,1015.63
2017-07-04T07:47:16.974Z,1015.62
2017-07-04T07:47:57.505Z,1015.62
2017-07-04T07:48:38.035Z,1015.6
2017-07-04T07:49:18.607Z,1015.58
2017-07-04T07:49:59.105Z,1015.58
2017-07-04T07:50:39.642Z,1015.53
2017-07-04T07:51:20.164Z,1015.58
2017-07-04T07:52:00.654Z,1015.56
2017-07-04T07:52:41.197Z,1015.52
2017-07-04T07:53:21.732Z,1015.54
2017-07-04T07:54:02.268Z,1015.51
2017-07-04T07:54:42.817Z,1015.52
2017-07-04T07:55:23.291Z,1015.51
2017-07-04T07:56:03.894Z,1015.56
2017-07-04T07:56:44.388Z,1015.54
2017-07-04T07:57:24.956Z,1015.5
2017-07-04T07:58:05.520Z,1015.51
2017-07-04T07:58:46.037Z,1015.55
2017-07-04T07:59:26.551Z,1015.55
2017-07-04T08:00:07.084Z,1015.57
2017-07-04T08:00:47.639Z,1015.55
2017-07-04T08:01:28.137Z,1015.53
2017-07-04T08:02:08.631Z,1015.53
2017-07-04T08:02:49.164Z,1015.55
2017-07-04T08:03:29.709Z,1015.57
2017-07-04T08:04:10.214Z,1015.54
2017-07-04T08:04:50.729Z,1015.56
2017-07-04T08:05:31.270Z,1015.56
2017-07-04T08:06:11.748Z,1015.51
2017-07-04T08:06:52.295Z,1015.53
2017-07-04T08:07:32.825Z,1015.51
2017-07-04T08:08:13.351Z,1015.51
2017-07-04T08:08:53.860Z,1015.54
2017-07-04T08:09:34.350Z,1015.53
2017-07-04T08:10:14.864Z,1015.53
2017-07-04T08:10:55.372Z,1015.54
2017-07-04T08:11:35.931Z,1015.5
2017-07-04T08:12:16.464Z,1015.53
2017-07-04T08:12:57.014Z,1015.49
2017-07-04T08:13:37.511Z,1015.51
2017-07-04T08:14:18.014Z,1015.5
2017-07-04T08:14:58.539Z,1015.51
2017-07-04T08:15:39.068Z,1015.49
2017-07-04T08:16:19.585Z,1015.5
2017-07-04T08:17:00.105Z,1015.5
2017-07-04T08:17:40.633Z,1015.52
2017-07-04T08:18:21.156Z,1015.53